Time;durP1;ratioP1;P1;durP2;ratioP2;P2;SDS_P1;SDS_P2;PMS_P1;PMS_P2;Temp;Humidity;BMP_temperature;BMP_pressure;BME280_temperature;BME280_humidity;BME280_pressure;Samples;Min_cycle;Max_cycle;Signal;HPM_P1;HPM_P2
2022/05/17 00:00:28;;;;;;;;;;;;;;;;;;5005148;28;19965;-77
2022/05/17 00:02:53;;;;;;;;;;;;;;;;;;4995838;28;19921;-77
2022/05/17 00:05:19;;;;;;;;;;;;;;;;;;4972036;28;19918;-77
2022/05/17 00:07:45;;;;;;;;;;;;;;;;;;4995910;28;20268;-77
2022/05/17 00:10:11;;;;;;;;;;;;;;;;;;4995426;28;19941;-77
2022/05/17 00:12:37;;;;;;;;;;;;;;;;;;4988716;28;19921;-77
2022/05/17 00:15:04;;;;;;;;;;;;;;;;;;4993518;28;19922;-78
2022/05/17 00:17:30;;;;;;;;;;;;;;;;;;4988120;28;19924;-78
2022/05/17 00:19:57;;;;;;;;;;;;;;;;;;4993747;28;19993;-78
2022/05/17 00:22:22;;;;;;;;;;;;;;;;;;4986703;28;19921;-78
2022/05/17 00:24:48;;;;;;;;;;;;;;;;;;4994003;28;19924;-78
2022/05/17 00:27:13;;;;;;;;;;;;;;;;;;4994544;28;19972;-79
2022/05/17 00:29:39;;;;;;;;;;;;;;;;;;4989406;28;20437;-79
2022/05/17 00:32:04;;;;;;;;;;;;;;;;;;5012162;28;19917;-78
2022/05/17 00:34:31;;;;;;;;;;;;;;;;;;5014849;28;19917;-78
2022/05/17 00:36:56;;;;;;;;;;;;;;;;;;5011386;28;19945;-78
2022/05/17 00:39:22;;;;;;;;;;;;;;;;;;5006652;28;19918;-77
2022/05/17 00:41:49;;;;;;;;;;;;;;;;;;4998073;28;19964;-77
2022/05/17 00:47:19;;;;;;;;;;;;;;;;;;5015159;28;19925;-77
2022/05/17 00:49:50;;;;;;;;;;;;;;;;;;4994938;28;20294;-77
2022/05/17 00:52:19;;;;;;;;;;;;;;;;;;4999407;28;19921;-77
2022/05/17 00:54:45;;;;;;;;;;;;;;;;;;4999006;28;20379;-77
2022/05/17 00:57:16;;;;;;;;;;;;;;;;;;5015986;28;19975;-77
2022/05/17 00:59:42;;;;;;;;;;;;;;;;;;4994567;28;20318;-77
2022/05/17 01:02:09;;;;;;;;;;;;;;;;;;5033927;28;19921;-78
2022/05/17 01:04:35;;;;;;;;;;;;;;;;;;5029828;28;19917;-77
2022/05/17 01:07:02;;;;;;;;;;;;;;;;;;5035442;28;20015;-77
2022/05/17 01:09:27;;;;;;;;;;;;;;;;;;5036465;28;19920;-77
2022/05/17 01:11:53;;;;;;;;;;;;;;;;;;5036561;28;19917;-77
2022/05/17 01:17:03;;;;;;;;;;;;;;;;;;5017754;28;19949;-77
2022/05/17 01:19:29;;;;;;;;;;;;;;;;;;5008524;28;19917;-77
2022/05/17 01:21:54;;;;;;;;;;;;;;;;;;4997120;28;20364;-77
2022/05/17 01:24:20;;;;;;;;;;;;;;;;;;5006348;28;19925;-77
2022/05/17 01:26:49;;;;;;;;;;;;;;;;;;5013437;28;20294;-76
2022/05/17 01:29:14;;;;;;;;;;;;;;;;;;5013678;28;19917;-76
2022/05/17 01:31:41;;;;;;;;;;;;;;;;;;4996889;28;19917;-76
2022/05/17 01:34:07;;;;;;;;;;;;;;;;;;4997017;28;19924;-77
2022/05/17 01:36:33;;;;;;;;;;;;;;;;;;5024632;28;19972;-77
2022/05/17 01:38:58;;;;;;;;;;;;;;;;;;5013333;28;20352;-77
2022/05/17 01:41:25;;;;;;;;;;;;;;;;;;4994747;28;19917;-77
2022/05/17 01:43:52;;;;;;;;;;;;;;;;;;5019228;28;19939;-77
2022/05/17 01:46:19;;;;;;;;;;;;;;;;;;5026767;28;19963;-77
2022/05/17 01:48:44;;;;;;;;;;;;;;;;;;5029048;28;20003;-77
2022/05/17 01:51:10;;;;;;;;;;;;;;;;;;5020659;28;19921;-77
2022/05/17 01:53:37;;;;;;;;;;;;;;;;;;5015447;28;19921;-76
2022/05/17 01:56:06;;;;;;;;;;;;;;;;;;5020596;28;19939;-77
2022/05/17 01:58:32;;;;;;;;;;;;;;;;;;5037483;28;19917;-77
2022/05/17 02:00:57;;;;;;;;;;;;;;;;;;5038583;28;19921;-76
2022/05/17 02:03:23;;;;;;;;;;;;;;;;;;5017702;28;20323;-77
2022/05/17 02:05:49;;;;;;;;;;;;;;;;;;5019119;28;20318;-77
2022/05/17 02:08:17;;;;;;;;;;;;;;;;;;5018310;28;19917;-76
2022/05/17 02:10:42;;;;;;;;;;;;;;;;;;5001460;28;19924;-77
2022/05/17 02:13:08;;;;;;;;;;;;;;;;;;5018321;28;19925;-77
2022/05/17 02:15:33;;;;;;;;;;;;;;;;;;5016884;28;19917;-77
2022/05/17 02:17:58;;;;;;;;;;;;;;;;;;5019689;28;20283;-76
2022/05/17 02:20:24;;;;;;;;;;;;;;;;;;5017266;28;20272;-76
2022/05/17 02:22:54;;;;;;;;;;;;;;;;;;5015978;28;19925;-77
2022/05/17 02:25:20;;;;;;;;;;;;;;;;;;5017069;28;20052;-76
2022/05/17 02:27:45;;;;;;;;;;;;;;;;;;4999688;28;19925;-76
2022/05/17 02:30:11;;;;;;;;;;;;;;;;;;5015922;28;19917;-76
2022/05/17 02:32:37;;;;;;;;;;;;;;;;;;4995920;28;19925;-76
2022/05/17 02:35:03;;;;;;;;;;;;;;;;;;4997958;28;19918;-77
2022/05/17 02:37:28;;;;;;;;;;;;;;;;;;4997046;28;19950;-77
2022/05/17 02:39:54;;;;;;;;;;;;;;;;;;4980791;28;20307;-76
2022/05/17 02:42:19;;;;;;;;;;;;;;;;;;4997648;28;19924;-77
2022/05/17 02:44:45;;;;;;;;;;;;;;;;;;4999143;28;19918;-77
2022/05/17 02:47:11;;;;;;;;;;;;;;;;;;4998791;28;19922;-77
2022/05/17 02:49:38;;;;;;;;;;;;;;;;;;4997465;28;20343;-77
2022/05/17 02:52:04;;;;;;;;;;;;;;;;;;4996442;28;19925;-76
2022/05/17 02:54:29;;;;;;;;;;;;;;;;;;5000246;28;19922;-77
2022/05/17 02:56:54;;;;;;;;;;;;;;;;;;4998296;28;20252;-77
2022/05/17 02:59:20;;;;;;;;;;;;;;;;;;4996321;28;20371;-77
2022/05/17 03:01:46;;;;;;;;;;;;;;;;;;4997992;28;20395;-74
2022/05/17 03:04:13;;;;;;;;;;;;;;;;;;5012396;28;20028;-76
2022/05/17 03:06:39;;;;;;;;;;;;;;;;;;4996858;28;19929;-75
2022/05/17 03:09:04;;;;;;;;;;;;;;;;;;5011714;28;19918;-75
2022/05/17 03:11:29;;;;;;;;;;;;;;;;;;4996760;28;20391;-75
2022/05/17 03:13:55;;;;;;;;;;;;;;;;;;4994530;28;19924;-75
2022/05/17 03:16:20;;;;;;;;;;;;;;;;;;4993165;28;19917;-75
2022/05/17 03:18:46;;;;;;;;;;;;;;;;;;4994409;28;20372;-75
2022/05/17 03:21:11;;;;;;;;;;;;;;;;;;4992845;28;19918;-74
2022/05/17 03:23:36;;;;;;;;;;;;;;;;;;4994231;28;20045;-75
2022/05/17 03:26:02;;;;;;;;;;;;;;;;;;4994331;28;20633;-75
2022/05/17 03:28:28;;;;;;;;;;;;;;;;;;4995405;28;19956;-75
2022/05/17 03:30:53;;;;;;;;;;;;;;;;;;4997746;28;20291;-75
2022/05/17 03:33:18;;;;;;;;;;;;;;;;;;5015260;28;19917;-75
2022/05/17 03:35:43;;;;;;;;;;;;;;;;;;5015675;28;20298;-75
2022/05/17 03:38:09;;;;;;;;;;;;;;;;;;4998069;28;19918;-75
2022/05/17 03:40:34;;;;;;;;;;;;;;;;;;5014462;28;19918;-75
2022/05/17 03:43:00;;;;;;;;;;;;;;;;;;5014384;28;19975;-75
2022/05/17 03:45:25;;;;;;;;;;;;;;;;;;5014384;28;19914;-75
2022/05/17 03:47:51;;;;;;;;;;;;;;;;;;5015635;28;19924;-75
2022/05/17 03:50:17;;;;;;;;;;;;;;;;;;5015367;28;20421;-74
2022/05/17 03:52:43;;;;;;;;;;;;;;;;;;4997393;28;19928;-75
2022/05/17 03:55:09;;;;;;;;;;;;;;;;;;5014078;28;20113;-75
2022/05/17 03:57:34;;;;;;;;;;;;;;;;;;4997848;28;19957;-75
2022/05/17 04:00:00;;;;;;;;;;;;;;;;;;4997143;28;20393;-75
2022/05/17 04:02:25;;;;;;;;;;;;;;;;;;5013637;28;19922;-75
2022/05/17 04:04:51;;;;;;;;;;;;;;;;;;5012188;28;19918;-74
2022/05/17 04:07:17;;;;;;;;;;;;;;;;;;4995084;28;19925;-75
2022/05/17 04:09:42;;;;;;;;;;;;;;;;;;5012750;28;19940;-75
2022/05/17 04:12:08;;;;;;;;;;;;;;;;;;5012832;28;19924;-75
2022/05/17 04:14:33;;;;;;;;;;;;;;;;;;5011775;28;19923;-75
2022/05/17 04:16:58;;;;;;;;;;;;;;;;;;5012167;28;19925;-75
2022/05/17 04:19:24;;;;;;;;;;;;;;;;;;5012217;28;20291;-75
2022/05/17 04:21:49;;;;;;;;;;;;;;;;;;5011394;28;19928;-75
2022/05/17 04:24:14;;;;;;;;;;;;;;;;;;5011314;28;20379;-75
2022/05/17 04:26:41;;;;;;;;;;;;;;;;;;5011110;28;19917;-75
2022/05/17 04:29:07;;;;;;;;;;;;;;;;;;4994769;28;20396;-75
2022/05/17 04:31:33;;;;;;;;;;;;;;;;;;4994334;28;19924;-75
2022/05/17 04:33:59;;;;;;;;;;;;;;;;;;5011237;28;20133;-75
2022/05/17 04:36:24;;;;;;;;;;;;;;;;;;5012455;28;20009;-75
2022/05/17 04:38:49;;;;;;;;;;;;;;;;;;5014668;28;19918;-75
2022/05/17 04:41:15;;;;;;;;;;;;;;;;;;5013308;28;20007;-75
2022/05/17 04:43:40;;;;;;;;;;;;;;;;;;5013335;28;19928;-75
2022/05/17 04:46:07;;;;;;;;;;;;;;;;;;5014591;28;20287;-75
2022/05/17 04:48:33;;;;;;;;;;;;;;;;;;5013186;28;20016;-75
2022/05/17 04:50:58;;;;;;;;;;;;;;;;;;4996462;28;19964;-74
2022/05/17 04:53:24;;;;;;;;;;;;;;;;;;5014163;28;19921;-75
2022/05/17 04:55:49;;;;;;;;;;;;;;;;;;4996856;28;19971;-75
2022/05/17 04:58:14;;;;;;;;;;;;;;;;;;4980411;28;19913;-75
2022/05/17 05:00:40;;;;;;;;;;;;;;;;;;4996614;28;19917;-74
2022/05/17 05:03:05;;;;;;;;;;;;;;;;;;4996491;28;20019;-74
2022/05/17 05:05:31;;;;;;;;;;;;;;;;;;5013453;28;19952;-75
2022/05/17 05:07:56;;;;;;;;;;;;;;;;;;5013126;28;19922;-75
2022/05/17 05:10:22;;;;;;;;;;;;;;;;;;4996386;28;20371;-75
2022/05/17 05:12:47;;;;;;;;;;;;;;;;;;5014149;28;19932;-75
2022/05/17 05:15:13;;;;;;;;;;;;;;;;;;5011896;28;19923;-74
2022/05/17 05:17:39;;;;;;;;;;;;;;;;;;5014041;28;20004;-75
2022/05/17 05:20:06;;;;;;;;;;;;;;;;;;4996327;28;19952;-74
2022/05/17 05:22:32;;;;;;;;;;;;;;;;;;5012674;28;19933;-75
2022/05/17 05:24:58;;;;;;;;;;;;;;;;;;4996623;28;19922;-75
2022/05/17 05:27:23;;;;;;;;;;;;;;;;;;4996279;28;20351;-75
2022/05/17 05:29:49;;;;;;;;;;;;;;;;;;4996153;28;19984;-75
2022/05/17 05:32:14;;;;;;;;;;;;;;;;;;4995855;28;20005;-75
2022/05/17 05:34:40;;;;;;;;;;;;;;;;;;4980085;28;19963;-75
2022/05/17 05:37:05;;;;;;;;;;;;;;;;;;5013834;28;20486;-76
2022/05/17 05:39:31;;;;;;;;;;;;;;;;;;4994766;28;19918;-76
2022/05/17 05:41:56;;;;;;;;;;;;;;;;;;5012176;28;19921;-75
2022/05/17 05:44:22;;;;;;;;;;;;;;;;;;4996251;28;20279;-75
2022/05/17 05:46:47;;;;;;;;;;;;;;;;;;5012887;28;19922;-76
2022/05/17 05:49:14;;;;;;;;;;;;;;;;;;5012969;28;19917;-76
2022/05/17 05:51:40;;;;;;;;;;;;;;;;;;4996129;28;20440;-76
2022/05/17 05:54:05;;;;;;;;;;;;;;;;;;5011718;28;19924;-76
2022/05/17 05:56:31;;;;;;;;;;;;;;;;;;4979267;28;20287;-75
2022/05/17 05:58:58;;;;;;;;;;;;;;;;;;4982315;28;19922;-75
2022/05/17 06:01:23;;;;;;;;;;;;;;;;;;4988218;28;19924;-75
2022/05/17 06:03:49;;;;;;;;;;;;;;;;;;4979299;28;19921;-75
2022/05/17 06:06:16;;;;;;;;;;;;;;;;;;5013253;28;19945;-75
2022/05/17 06:08:41;;;;;;;;;;;;;;;;;;5019623;28;19925;-76
2022/05/17 06:11:06;;;;;;;;;;;;;;;;;;5002733;28;19922;-75
2022/05/17 06:13:32;;;;;;;;;;;;;;;;;;5011443;28;19917;-74
2022/05/17 06:15:58;;;;;;;;;;;;;;;;;;4978401;28;19925;-76
2022/05/17 06:18:24;;;;;;;;;;;;;;;;;;4996842;28;20286;-77
2022/05/17 06:20:51;;;;;;;;;;;;;;;;;;5013191;28;19924;-77
2022/05/17 06:23:17;;;;;;;;;;;;;;;;;;4980315;28;19968;-77
2022/05/17 06:25:42;;;;;;;;;;;;;;;;;;4981124;28;20008;-77
2022/05/17 06:28:08;;;;;;;;;;;;;;;;;;4987433;28;20449;-77
2022/05/17 06:30:33;;;;;;;;;;;;;;;;;;4997433;28;19918;-74
2022/05/17 06:33:00;;;;;;;;;;;;;;;;;;4996592;28;20007;-74
2022/05/17 06:35:26;;;;;;;;;;;;;;;;;;4995396;28;19926;-73
2022/05/17 06:37:52;;;;;;;;;;;;;;;;;;5003692;28;19924;-74
2022/05/17 06:40:18;;;;;;;;;;;;;;;;;;5015206;28;19921;-74
2022/05/17 06:42:43;;;;;;;;;;;;;;;;;;5016514;28;20260;-74
2022/05/17 06:45:11;;;;;;;;;;;;;;;;;;5015050;28;19917;-74
2022/05/17 06:47:36;;;;;;;;;;;;;;;;;;4996814;28;19925;-74
2022/05/17 06:50:03;;;;;;;;;;;;;;;;;;4997742;28;20513;-75
2022/05/17 06:52:28;;;;;;;;;;;;;;;;;;5002340;28;19922;-74
2022/05/17 06:54:55;;;;;;;;;;;;;;;;;;5014123;28;19982;-74
2022/05/17 06:57:21;;;;;;;;;;;;;;;;;;5014427;28;20000;-74
2022/05/17 06:59:46;;;;;;;;;;;;;;;;;;5014871;28;20401;-74
2022/05/17 07:02:12;;;;;;;;;;;;;;;;;;5015838;28;20252;-75
2022/05/17 07:04:37;;;;;;;;;;;;;;;;;;5016065;28;19921;-74
2022/05/17 07:07:04;;;;;;;;;;;;;;;;;;5021702;28;19920;-76
2022/05/17 07:09:29;;;;;;;;;;;;;;;;;;5035258;28;19917;-76
2022/05/17 07:14:39;;;;;;;;;;;;;;;;;;5031421;28;19934;-80
2022/05/17 07:17:05;;;;;;;;;;;;;;;;;;5015046;28;19925;-79
2022/05/17 07:19:34;;;;;;;;;;;;;;;;;;5016128;28;19921;-79
2022/05/17 07:22:00;;;;;;;;;;;;;;;;;;5013858;28;19944;-79
2022/05/17 07:24:25;;;;;;;;;;;;;;;;;;5018314;28;19921;-80
2022/05/17 07:26:51;;;;;;;;;;;;;;;;;;5012159;28;20004;-77
2022/05/17 07:29:17;;;;;;;;;;;;;;;;;;5018682;28;19953;-77
2022/05/17 07:31:42;;;;;;;;;;;;;;;;;;5014123;28;19983;-78
2022/05/17 07:34:08;;;;;;;;;;;;;;;;;;5011254;28;19922;-77
2022/05/17 07:36:33;;;;;;;;;;;;;;;;;;5027920;28;19917;-78
2022/05/17 07:38:59;;;;;;;;;;;;;;;;;;5018773;28;19991;-78
2022/05/17 07:41:27;;;;;;;;;;;;;;;;;;5000957;28;19925;-78
2022/05/17 07:43:53;;;;;;;;;;;;;;;;;;5014319;28;19922;-77
2022/05/17 07:46:18;;;;;;;;;;;;;;;;;;5025053;28;19917;-78
2022/05/17 07:48:43;;;;;;;;;;;;;;;;;;4997194;28;19924;-76
2022/05/17 07:51:09;;;;;;;;;;;;;;;;;;4999963;28;19968;-78
2022/05/17 07:53:36;;;;;;;;;;;;;;;;;;4997446;28;19922;-78
2022/05/17 07:56:02;;;;;;;;;;;;;;;;;;5001995;28;19924;-78
2022/05/17 07:58:30;;;;;;;;;;;;;;;;;;5019210;28;20077;-79
2022/05/17 08:00:56;;;;;;;;;;;;;;;;;;5004714;28;19978;-79
2022/05/17 08:03:22;;;;;;;;;;;;;;;;;;5019372;28;19972;-79
2022/05/17 08:05:47;;;;;;;;;;;;;;;;;;5021250;28;19993;-78
2022/05/17 08:08:13;;;;;;;;;;;;;;;;;;5018248;28;19924;-79
2022/05/17 08:10:39;;;;;;;;;;;;;;;;;;5018714;28;20331;-79
2022/05/17 08:13:04;;;;;;;;;;;;;;;;;;5022756;28;19951;-80
2022/05/17 08:15:30;;;;;;;;;;;;;;;;;;5020276;28;20339;-76
2022/05/17 08:17:56;;;;;;;;;;;;;;;;;;5016838;28;19987;-77
2022/05/17 08:20:22;;;;;;;;;;;;;;;;;;5011774;28;20347;-77
2022/05/17 08:22:48;;;;;;;;;;;;;;;;;;5015736;28;19925;-79
2022/05/17 08:27:59;;;;;;;;;;;;;;;;;;5016062;28;20011;-78
2022/05/17 08:30:26;;;;;;;;;;;;;;;;;;5018789;28;20007;-79
2022/05/17 08:35:41;;;;;;;;;;;;;;;;;;5017252;28;19973;-76
2022/05/17 08:38:07;;;;;;;;;;;;;;;;;;4997878;28;19918;-78
2022/05/17 08:40:34;;;;;;;;;;;;;;;;;;5000232;28;19924;-77
2022/05/17 08:43:07;;;;;;;;;;;;;;;;;;5014342;28;19921;-77
2022/05/17 08:45:53;;;;;;;;;;;;;;;;;;5013153;28;19917;-76
2022/05/17 08:48:18;;;;;;;;;;;;;;;;;;5003273;28;19922;-78
2022/05/17 08:50:45;;;;;;;;;;;;;;;;;;5012677;28;19967;-77
2022/05/17 08:53:16;;;;;;;;;;;;;;;;;;4997615;28;19925;-77
2022/05/17 08:55:41;;;;;;;;;;;;;;;;;;4999502;28;19991;-78
2022/05/17 08:58:12;;;;;;;;;;;;;;;;;;4999603;28;19917;-77
2022/05/17 09:00:40;;;;;;;;;;;;;;;;;;5033219;28;19927;-78
2022/05/17 09:03:13;;;;;;;;;;;;;;;;;;5015875;28;20375;-76
2022/05/17 09:06:04;;;;;;;;;;;;;;;;;;5016471;28;19922;-76
2022/05/17 09:08:41;;;;;;;;;;;;;;;;;;4992413;28;19917;-77
2022/05/17 09:11:26;;;;;;;;;;;;;;;;;;4999272;28;20287;-80
2022/05/17 09:13:55;;;;;;;;;;;;;;;;;;4999815;28;19974;-81
2022/05/17 09:16:22;;;;;;;;;;;;;;;;;;5000918;28;20314;-77
2022/05/17 09:18:49;;;;;;;;;;;;;;;;;;5001232;28;19924;-78
2022/05/17 09:21:26;;;;;;;;;;;;;;;;;;5018191;28;20011;-78
2022/05/17 09:23:52;;;;;;;;;;;;;;;;;;5017611;28;19972;-78
2022/05/17 09:26:18;;;;;;;;;;;;;;;;;;5017125;28;19917;-78
2022/05/17 09:28:46;;;;;;;;;;;;;;;;;;4998775;28;20012;-76
2022/05/17 09:31:15;;;;;;;;;;;;;;;;;;4996061;28;19924;-77
2022/05/17 09:33:43;;;;;;;;;;;;;;;;;;5015926;28;19918;-80
2022/05/17 09:36:15;;;;;;;;;;;;;;;;;;5018289;28;19999;-79
2022/05/17 09:38:41;;;;;;;;;;;;;;;;;;5023046;28;19957;-81
2022/05/17 09:41:08;;;;;;;;;;;;;;;;;;5022193;28;19940;-83
2022/05/17 09:43:40;;;;;;;;;;;;;;;;;;5025280;28;19925;-83
2022/05/17 09:46:09;;;;;;;;;;;;;;;;;;5005386;28;19940;-86
2022/05/17 09:54:32;;;;;;;;;;;;;;;;;;5022932;28;20011;-79
2022/05/17 09:57:10;;;;;;;;;;;;;;;;;;5004859;28;19918;-81
2022/05/17 09:59:35;;;;;;;;;;;;;;;;;;5020755;28;19925;-83
2022/05/17 10:02:01;;;;;;;;;;;;;;;;;;5042265;28;19917;-78
2022/05/17 10:04:26;;;;;;;;;;;;;;;;;;5042320;28;19967;-80
2022/05/17 10:06:55;;;;;;;;;;;;;;;;;;5022965;28;19940;-81
2022/05/17 10:09:32;;;;;;;;;;;;;;;;;;5021669;28;19940;-77
2022/05/17 10:12:02;;;;;;;;;;;;;;;;;;5040658;28;19917;-80
2022/05/17 10:14:37;;;;;;;;;;;;;;;;;;5013678;28;19921;-81
2022/05/17 10:17:05;;;;;;;;;;;;;;;;;;5000358;28;20265;-77
2022/05/17 10:19:38;;;;;;;;;;;;;;;;;;4998720;28;20008;-80
2022/05/17 10:22:08;;;;;;;;;;;;;;;;;;5001783;28;19949;-78
2022/05/17 10:24:42;;;;;;;;;;;;;;;;;;5000676;28;19918;-77
2022/05/17 10:27:11;;;;;;;;;;;;;;;;;;5001240;28;19925;-79
2022/05/17 10:29:45;;;;;;;;;;;;;;;;;;5003165;28;20020;-81
2022/05/17 10:32:29;;;;;;;;;;;;;;;;;;5016635;28;19921;-78
2022/05/17 10:34:57;;;;;;;;;;;;;;;;;;4998998;28;20036;-80
2022/05/17 10:37:30;;;;;;;;;;;;;;;;;;5019510;28;19917;-79
2022/05/17 10:39:56;;;;;;;;;;;;;;;;;;5022381;28;19957;-78
2022/05/17 10:42:21;;;;;;;;;;;;;;;;;;5023244;28;19928;-78
2022/05/17 10:44:50;;;;;;;;;;;;;;;;;;5024154;28;19923;-78
2022/05/17 10:47:25;;;;;;;;;;;;;;;;;;5024426;28;19957;-80
2022/05/17 10:50:04;;;;;;;;;;;;;;;;;;5026614;28;20024;-79
2022/05/17 10:52:48;;;;;;;;;;;;;;;;;;5024913;28;19926;-80
2022/05/17 10:55:25;;;;;;;;;;;;;;;;;;5023051;28;19928;-79
2022/05/17 10:58:00;;;;;;;;;;;;;;;;;;5006338;28;19967;-79
2022/05/17 11:00:46;;;;;;;;;;;;;;;;;;4989815;28;20260;-78
2022/05/17 11:03:18;;;;;;;;;;;;;;;;;;5018075;28;20379;-79
2022/05/17 11:05:44;;;;;;;;;;;;;;;;;;5006684;28;20017;-79
2022/05/17 11:08:26;;;;;;;;;;;;;;;;;;4990493;28;19932;-78
2022/05/17 11:10:54;;;;;;;;;;;;;;;;;;5006754;28;19918;-78
2022/05/17 11:13:28;;;;;;;;;;;;;;;;;;4989473;28;19921;-78
2022/05/17 11:15:56;;;;;;;;;;;;;;;;;;5023093;28;19917;-78
2022/05/17 11:18:25;;;;;;;;;;;;;;;;;;4989046;28;19914;-80
2022/05/17 11:20:52;;;;;;;;;;;;;;;;;;5005048;28;20287;-78
2022/05/17 11:23:33;;;;;;;;;;;;;;;;;;5022343;28;20012;-78
2022/05/17 11:26:05;;;;;;;;;;;;;;;;;;5004890;28;19922;-78
2022/05/17 11:28:38;;;;;;;;;;;;;;;;;;5004725;28;19917;-78
2022/05/17 11:31:21;;;;;;;;;;;;;;;;;;5020433;28;19924;-79
2022/05/17 11:33:47;;;;;;;;;;;;;;;;;;4988345;28;19967;-79
2022/05/17 11:36:33;;;;;;;;;;;;;;;;;;4988070;28;19921;-78
2022/05/17 11:39:02;;;;;;;;;;;;;;;;;;4990023;28;19925;-79
2022/05/17 11:41:33;;;;;;;;;;;;;;;;;;5021233;28;19980;-79
2022/05/17 11:44:08;;;;;;;;;;;;;;;;;;5022391;28;19921;-79
2022/05/17 11:46:34;;;;;;;;;;;;;;;;;;4988116;28;19922;-79
2022/05/17 11:49:12;;;;;;;;;;;;;;;;;;4988303;28;19918;-78
2022/05/17 11:51:57;;;;;;;;;;;;;;;;;;5023063;28;20015;-79
2022/05/17 11:54:42;;;;;;;;;;;;;;;;;;5023138;28;19921;-79
2022/05/17 11:57:23;;;;;;;;;;;;;;;;;;5005063;28;19924;-78
2022/05/17 12:00:01;;;;;;;;;;;;;;;;;;5022148;28;19922;-79
2022/05/17 12:02:41;;;;;;;;;;;;;;;;;;5005174;28;20124;-79
2022/05/17 12:05:09;;;;;;;;;;;;;;;;;;5004402;28;19922;-78
2022/05/17 12:07:35;;;;;;;;;;;;;;;;;;5003842;28;19924;-78
2022/05/17 12:10:14;;;;;;;;;;;;;;;;;;5023433;28;19918;-78
2022/05/17 12:12:42;;;;;;;;;;;;;;;;;;5020809;28;19918;-79
2022/05/17 12:15:22;;;;;;;;;;;;;;;;;;5022479;28;19917;-79
2022/05/17 12:17:58;;;;;;;;;;;;;;;;;;5005294;28;19940;-79
2022/05/17 12:20:56;;;;;;;;;;;;;;;;;;5004483;28;20003;-78
2022/05/17 12:23:21;;;;;;;;;;;;;;;;;;4977284;28;19921;-78
2022/05/17 12:25:53;;;;;;;;;;;;;;;;;;5003958;28;19985;-78
2022/05/17 12:28:23;;;;;;;;;;;;;;;;;;5020326;28;20375;-79
2022/05/17 12:31:00;;;;;;;;;;;;;;;;;;5003720;28;19921;-79
2022/05/17 12:33:25;;;;;;;;;;;;;;;;;;5003877;28;20064;-78
2022/05/17 12:35:52;;;;;;;;;;;;;;;;;;5003831;28;19975;-78
2022/05/17 12:43:56;;;;;;;;;;;;;;;;;;5023672;28;19921;-80
2022/05/17 12:46:30;;;;;;;;;;;;;;;;;;5006003;28;20007;-80
2022/05/17 12:48:57;;;;;;;;;;;;;;;;;;5016395;28;19923;-78
2022/05/17 12:51:24;;;;;;;;;;;;;;;;;;4998922;28;19917;-77
2022/05/17 12:53:53;;;;;;;;;;;;;;;;;;5009718;28;19968;-76
2022/05/17 12:56:18;;;;;;;;;;;;;;;;;;5020885;28;20383;-76
2022/05/17 12:58:48;;;;;;;;;;;;;;;;;;5012477;28;19924;-76
2022/05/17 13:01:14;;;;;;;;;;;;;;;;;;5012142;28;19924;-76
2022/05/17 13:03:42;;;;;;;;;;;;;;;;;;5013754;28;20012;-76
2022/05/17 13:06:08;;;;;;;;;;;;;;;;;;5026764;28;19936;-75
2022/05/17 13:08:36;;;;;;;;;;;;;;;;;;5008202;28;20340;-78
2022/05/17 13:11:09;;;;;;;;;;;;;;;;;;5017090;28;19918;-79
2022/05/17 13:13:36;;;;;;;;;;;;;;;;;;5028737;28;19925;-79
2022/05/17 13:16:03;;;;;;;;;;;;;;;;;;5023231;28;19917;-79
2022/05/17 13:18:34;;;;;;;;;;;;;;;;;;5015174;28;19956;-79
2022/05/17 13:21:00;;;;;;;;;;;;;;;;;;5005594;28;19940;-79
2022/05/17 13:23:26;;;;;;;;;;;;;;;;;;5022939;28;19917;-80
2022/05/17 13:25:55;;;;;;;;;;;;;;;;;;5019125;28;19917;-79
2022/05/17 13:28:27;;;;;;;;;;;;;;;;;;5015021;28;19917;-79
2022/05/17 13:31:00;;;;;;;;;;;;;;;;;;5023437;28;19924;-79
2022/05/17 13:33:32;;;;;;;;;;;;;;;;;;5044552;28;19924;-80
2022/05/17 13:36:11;;;;;;;;;;;;;;;;;;5028236;28;19993;-79
2022/05/17 13:38:38;;;;;;;;;;;;;;;;;;5025561;28;19918;-79
2022/05/17 13:41:14;;;;;;;;;;;;;;;;;;5047107;28;19957;-79
2022/05/17 13:43:40;;;;;;;;;;;;;;;;;;5042171;28;19953;-79
2022/05/17 13:46:18;;;;;;;;;;;;;;;;;;5030843;28;19913;-79
2022/05/17 13:48:49;;;;;;;;;;;;;;;;;;5025649;28;20294;-79
2022/05/17 13:51:16;;;;;;;;;;;;;;;;;;5031232;28;19917;-79
2022/05/17 13:53:48;;;;;;;;;;;;;;;;;;5030721;28;19921;-79
2022/05/17 13:56:25;;;;;;;;;;;;;;;;;;5031253;28;20006;-78
2022/05/17 13:58:52;;;;;;;;;;;;;;;;;;5025555;28;19924;-79
2022/05/17 14:01:33;;;;;;;;;;;;;;;;;;5039805;28;20394;-79
2022/05/17 14:04:22;;;;;;;;;;;;;;;;;;5024013;28;19929;-79
2022/05/17 14:06:58;;;;;;;;;;;;;;;;;;4995449;28;19924;-79
2022/05/17 14:12:11;;;;;;;;;;;;;;;;;;5007189;28;19976;-79
2022/05/17 14:14:36;;;;;;;;;;;;;;;;;;5019315;28;19917;-79
2022/05/17 14:17:03;;;;;;;;;;;;;;;;;;5008685;28;19972;-79
2022/05/17 14:19:30;;;;;;;;;;;;;;;;;;4986357;28;19985;-79
2022/05/17 14:21:59;;;;;;;;;;;;;;;;;;5006683;28;20005;-79
2022/05/17 14:24:25;;;;;;;;;;;;;;;;;;5010270;28;19913;-80
2022/05/17 14:26:53;;;;;;;;;;;;;;;;;;5016499;28;19925;-80
2022/05/17 14:29:19;;;;;;;;;;;;;;;;;;5002196;28;19917;-80
2022/05/17 14:31:45;;;;;;;;;;;;;;;;;;5008842;28;19925;-80
2022/05/17 14:34:12;;;;;;;;;;;;;;;;;;5012204;28;19940;-80
2022/05/17 14:36:38;;;;;;;;;;;;;;;;;;5049633;28;19917;-79
2022/05/17 14:39:03;;;;;;;;;;;;;;;;;;5045600;28;19917;-79
2022/05/17 14:41:30;;;;;;;;;;;;;;;;;;5041642;28;19959;-79
2022/05/17 14:43:55;;;;;;;;;;;;;;;;;;5028079;28;19943;-78
2022/05/17 14:46:21;;;;;;;;;;;;;;;;;;5016003;28;19953;-79
2022/05/17 14:48:46;;;;;;;;;;;;;;;;;;5023401;28;19964;-79
2022/05/17 14:51:12;;;;;;;;;;;;;;;;;;5007647;28;19957;-79
2022/05/17 14:53:38;;;;;;;;;;;;;;;;;;5008701;28;20553;-80
2022/05/17 14:56:04;;;;;;;;;;;;;;;;;;5027364;28;19917;-79
2022/05/17 14:58:29;;;;;;;;;;;;;;;;;;5020544;28;19963;-79
2022/05/17 15:00:54;;;;;;;;;;;;;;;;;;5026843;28;19964;-80
2022/05/17 15:03:23;;;;;;;;;;;;;;;;;;5018385;28;20397;-79
2022/05/17 15:05:49;;;;;;;;;;;;;;;;;;5010035;28;19921;-79
2022/05/17 15:08:15;;;;;;;;;;;;;;;;;;4999377;28;19924;-79
2022/05/17 15:10:40;;;;;;;;;;;;;;;;;;4990044;28;19961;-79
2022/05/17 15:13:06;;;;;;;;;;;;;;;;;;4989987;28;19918;-78
2022/05/17 15:15:32;;;;;;;;;;;;;;;;;;5000566;28;19917;-79
2022/05/17 15:17:59;;;;;;;;;;;;;;;;;;5007092;28;19960;-79
2022/05/17 15:20:25;;;;;;;;;;;;;;;;;;4999571;28;19918;-79
2022/05/17 15:22:51;;;;;;;;;;;;;;;;;;5007284;28;19922;-79
2022/05/17 15:25:19;;;;;;;;;;;;;;;;;;4997873;28;19918;-79
2022/05/17 15:27:45;;;;;;;;;;;;;;;;;;5005782;28;20446;-79
2022/05/17 15:30:11;;;;;;;;;;;;;;;;;;5005614;28;19973;-79
2022/05/17 15:32:36;;;;;;;;;;;;;;;;;;4998616;28;19917;-79
2022/05/17 15:35:04;;;;;;;;;;;;;;;;;;5005011;28;20319;-79
2022/05/17 15:37:29;;;;;;;;;;;;;;;;;;5024683;28;19921;-79
2022/05/17 15:39:55;;;;;;;;;;;;;;;;;;5044397;28;19925;-79
2022/05/17 15:42:22;;;;;;;;;;;;;;;;;;5020644;28;19921;-79
2022/05/17 15:44:48;;;;;;;;;;;;;;;;;;5027811;28;19980;-80
2022/05/17 15:55:33;;;;;;;;;;;;;;;;;;5033438;28;19917;-78
2022/05/17 15:57:58;;;;;;;;;;;;;;;;;;5039279;28;19960;-79
2022/05/17 16:00:24;;;;;;;;;;;;;;;;;;5016087;28;19923;-79
2022/05/17 16:02:50;;;;;;;;;;;;;;;;;;5020816;28;20355;-77
2022/05/17 16:05:15;;;;;;;;;;;;;;;;;;5035827;28;19921;-77
2022/05/17 16:10:26;;;;;;;;;;;;;;;;;;4998549;28;19918;-77
2022/05/17 16:12:52;;;;;;;;;;;;;;;;;;4982347;28;19937;-77
2022/05/17 16:15:18;;;;;;;;;;;;;;;;;;5015130;28;19979;-76
2022/05/17 16:17:44;;;;;;;;;;;;;;;;;;4994412;28;19917;-77
2022/05/17 16:20:12;;;;;;;;;;;;;;;;;;5014608;28;20280;-77
2022/05/17 16:22:39;;;;;;;;;;;;;;;;;;4992183;28;20024;-77
2022/05/17 16:25:07;;;;;;;;;;;;;;;;;;5015986;28;20440;-77
2022/05/17 16:27:32;;;;;;;;;;;;;;;;;;5015376;28;19917;-77
2022/05/17 16:29:58;;;;;;;;;;;;;;;;;;5011303;28;19921;-77
2022/05/17 16:32:24;;;;;;;;;;;;;;;;;;5015268;28;19924;-77
2022/05/17 16:34:50;;;;;;;;;;;;;;;;;;5010916;28;19924;-77
2022/05/17 16:37:16;;;;;;;;;;;;;;;;;;5014322;28;19918;-76
2022/05/17 16:39:41;;;;;;;;;;;;;;;;;;5015040;28;20295;-77
2022/05/17 16:42:07;;;;;;;;;;;;;;;;;;5013221;28;19964;-77
2022/05/17 16:44:32;;;;;;;;;;;;;;;;;;5008327;28;19963;-77
2022/05/17 16:47:02;;;;;;;;;;;;;;;;;;4998418;28;20271;-76
2022/05/17 16:49:28;;;;;;;;;;;;;;;;;;4991206;28;19921;-76
2022/05/17 16:51:54;;;;;;;;;;;;;;;;;;5014801;28;19979;-77
2022/05/17 16:54:22;;;;;;;;;;;;;;;;;;4977857;28;20522;-77
2022/05/17 16:56:49;;;;;;;;;;;;;;;;;;4995899;28;19928;-77
2022/05/17 16:59:15;;;;;;;;;;;;;;;;;;4996492;28;19918;-76
2022/05/17 17:01:41;;;;;;;;;;;;;;;;;;4979088;28;20282;-77
2022/05/17 17:04:06;;;;;;;;;;;;;;;;;;4977847;28;19921;-78
2022/05/17 17:06:36;;;;;;;;;;;;;;;;;;4976574;28;20017;-77
2022/05/17 17:09:02;;;;;;;;;;;;;;;;;;4942139;28;19922;-77
2022/05/17 17:11:28;;;;;;;;;;;;;;;;;;4958931;28;19925;-78
2022/05/17 17:13:54;;;;;;;;;;;;;;;;;;4976589;28;20347;-77
2022/05/17 17:16:21;;;;;;;;;;;;;;;;;;4976838;28;19968;-79
2022/05/17 17:18:47;;;;;;;;;;;;;;;;;;4945369;28;19918;-81
2022/05/17 17:21:13;;;;;;;;;;;;;;;;;;4980256;28;19921;-80
2022/05/17 17:23:38;;;;;;;;;;;;;;;;;;4961445;28;19926;-78
2022/05/17 17:26:05;;;;;;;;;;;;;;;;;;4984278;28;19922;-82
2022/05/17 17:28:32;;;;;;;;;;;;;;;;;;4966809;28;19918;-79